sensor_id;sensor_type;location;lat;lon;timestamp;P1;durP1;ratioP1;P2;durP2;ratioP2
64595;SDS011;51003;51.628;6.670;2023-03-24T00:00:24;4.10;;;2.50;;
64595;SDS011;51003;51.628;6.670;2023-03-24T00:02:52;2.63;;;2.43;;
64595;SDS011;51003;51.628;6.670;2023-03-24T00:05:19;4.83;;;2.67;;
64595;SDS011;51003;51.628;6.670;2023-03-24T00:07:45;3.43;;;2.47;;
64595;SDS011;51003;51.628;6.670;2023-03-24T00:10:31;4.90;;;2.50;;
64595;SDS011;51003;51.628;6.670;2023-03-24T00:16:41;3.57;;;2.97;;
64595;SDS011;51003;51.628;6.670;2023-03-24T00:19:08;3.63;;;2.37;;
64595;SDS011;51003;51.628;6.670;2023-03-24T00:21:39;2.50;;;2.30;;
64595;SDS011;51003;51.628;6.670;2023-03-24T00:24:07;4.03;;;3.00;;
64595;SDS011;51003;51.628;6.670;2023-03-24T00:29:55;5.93;;;2.80;;
64595;SDS011;51003;51.628;6.670;2023-03-24T00:32:23;3.83;;;2.47;;
64595;SDS011;51003;51.628;6.670;2023-03-24T00:34:51;2.40;;;2.30;;
64595;SDS011;51003;51.628;6.670;2023-03-24T00:37:18;2.40;;;2.20;;
64595;SDS011;51003;51.628;6.670;2023-03-24T00:39:44;4.00;;;2.27;;
64595;SDS011;51003;51.628;6.670;2023-03-24T00:42:16;4.53;;;2.57;;
64595;SDS011;51003;51.628;6.670;2023-03-24T00:44:50;3.33;;;2.63;;
64595;SDS011;51003;51.628;6.670;2023-03-24T00:47:18;6.13;;;2.90;;
64595;SDS011;51003;51.628;6.670;2023-03-24T00:49:49;2.50;;;2.30;;
64595;SDS011;51003;51.628;6.670;2023-03-24T00:52:25;2.60;;;2.40;;
64595;SDS011;51003;51.628;6.670;2023-03-24T00:57:47;3.30;;;2.33;;
64595;SDS011;51003;51.628;6.670;2023-03-24T01:00:20;2.70;;;2.47;;
64595;SDS011;51003;51.628;6.670;2023-03-24T01:02:49;4.50;;;2.90;;
64595;SDS011;51003;51.628;6.670;2023-03-24T01:18:51;2.40;;;2.30;;
64595;SDS011;51003;51.628;6.670;2023-03-24T01:21:17;2.73;;;2.53;;
64595;SDS011;51003;51.628;6.670;2023-03-24T01:23:42;2.80;;;2.40;;
64595;SDS011;51003;51.628;6.670;2023-03-24T01:26:09;3.80;;;2.33;;
64595;SDS011;51003;51.628;6.670;2023-03-24T01:28:35;3.50;;;2.60;;
64595;SDS011;51003;51.628;6.670;2023-03-24T01:31:08;3.47;;;3.17;;
64595;SDS011;51003;51.628;6.670;2023-03-24T01:34:12;3.37;;;2.30;;
64595;SDS011;51003;51.628;6.670;2023-03-24T01:36:50;4.17;;;2.60;;
64595;SDS011;51003;51.628;6.670;2023-03-24T01:39:16;3.83;;;2.67;;
64595;SDS011;51003;51.628;6.670;2023-03-24T01:41:41;3.33;;;2.63;;
64595;SDS011;51003;51.628;6.670;2023-03-24T01:44:27;2.70;;;2.50;;
64595;SDS011;51003;51.628;6.670;2023-03-24T08:39:16;4.50;;;1.80;;
64595;SDS011;51003;51.628;6.670;2023-03-24T08:41:41;5.67;;;1.90;;
64595;SDS011;51003;51.628;6.670;2023-03-24T10:32:47;5.43;;;1.87;;
64595;SDS011;51003;51.628;6.670;2023-03-24T10:38:32;5.60;;;2.00;;
64595;SDS011;51003;51.628;6.670;2023-03-24T10:40:57;3.03;;;1.27;;
64595;SDS011;51003;51.628;6.670;2023-03-24T10:43:23;5.23;;;1.60;;
64595;SDS011;51003;51.628;6.670;2023-03-24T10:45:50;4.37;;;1.30;;
64595;SDS011;51003;51.628;6.670;2023-03-24T10:51:06;4.67;;;1.60;;
64595;SDS011;51003;51.628;6.670;2023-03-24T10:53:37;5.40;;;1.77;;
64595;SDS011;51003;51.628;6.670;2023-03-24T10:56:03;3.80;;;1.50;;
64595;SDS011;51003;51.628;6.670;2023-03-24T11:01:16;3.73;;;1.40;;
64595;SDS011;51003;51.628;6.670;2023-03-24T11:03:44;3.73;;;1.50;;
64595;SDS011;51003;51.628;6.670;2023-03-24T11:06:12;3.67;;;1.40;;
64595;SDS011;51003;51.628;6.670;2023-03-24T11:08:41;3.33;;;1.27;;
64595;SDS011;51003;51.628;6.670;2023-03-24T11:13:55;5.10;;;1.57;;
64595;SDS011;51003;51.628;6.670;2023-03-24T11:16:29;2.67;;;1.43;;
64595;SDS011;51003;51.628;6.670;2023-03-24T11:19:05;5.13;;;2.10;;
64595;SDS011;51003;51.628;6.670;2023-03-24T11:21:40;5.93;;;1.80;;
64595;SDS011;51003;51.628;6.670;2023-03-24T11:24:10;5.53;;;1.63;;
64595;SDS011;51003;51.628;6.670;2023-03-24T11:26:37;1.77;;;1.20;;
64595;SDS011;51003;51.628;6.670;2023-03-24T11:32:35;3.60;;;1.77;;
64595;SDS011;51003;51.628;6.670;2023-03-24T11:35:02;4.97;;;2.10;;
64595;SDS011;51003;51.628;6.670;2023-03-24T11:40:55;7.23;;;2.20;;
64595;SDS011;51003;51.628;6.670;2023-03-24T11:50:12;8.03;;;1.80;;
64595;SDS011;51003;51.628;6.670;2023-03-24T11:58:45;4.13;;;1.50;;
64595;SDS011;51003;51.628;6.670;2023-03-24T12:17:34;4.17;;;1.60;;
64595;SDS011;51003;51.628;6.670;2023-03-24T12:39:10;5.00;;;2.17;;
64595;SDS011;51003;51.628;6.670;2023-03-24T12:56:43;5.03;;;2.10;;
64595;SDS011;51003;51.628;6.670;2023-03-24T13:05:06;2.80;;;1.50;;
64595;SDS011;51003;51.628;6.670;2023-03-24T13:33:58;6.70;;;1.80;;
64595;SDS011;51003;51.628;6.670;2023-03-24T13:39:08;6.93;;;1.60;;
64595;SDS011;51003;51.628;6.670;2023-03-24T13:41:38;3.50;;;1.73;;
64595;SDS011;51003;51.628;6.670;2023-03-24T13:44:25;4.67;;;1.60;;
64595;SDS011;51003;51.628;6.670;2023-03-24T13:49:44;2.33;;;1.37;;
64595;SDS011;51003;51.628;6.670;2023-03-24T13:52:37;1.97;;;1.30;;
64595;SDS011;51003;51.628;6.670;2023-03-24T13:55:09;2.00;;;1.00;;
64595;SDS011;51003;51.628;6.670;2023-03-24T13:57:40;2.40;;;1.17;;
64595;SDS011;51003;51.628;6.670;2023-03-24T14:17:12;2.20;;;1.10;;
64595;SDS011;51003;51.628;6.670;2023-03-24T14:19:42;1.77;;;1.20;;
64595;SDS011;51003;51.628;6.670;2023-03-24T14:22:12;5.87;;;1.40;;
64595;SDS011;51003;51.628;6.670;2023-03-24T14:24:42;1.27;;;1.17;;
64595;SDS011;51003;51.628;6.670;2023-03-24T14:33:23;3.23;;;1.20;;
64595;SDS011;51003;51.628;6.670;2023-03-24T14:35:50;3.00;;;1.30;;
64595;SDS011;51003;51.628;6.670;2023-03-24T14:38:25;2.23;;;1.60;;
64595;SDS011;51003;51.628;6.670;2023-03-24T14:40:54;2.70;;;1.23;;
64595;SDS011;51003;51.628;6.670;2023-03-24T14:48:37;2.00;;;1.87;;
64595;SDS011;51003;51.628;6.670;2023-03-24T14:51:15;2.20;;;1.53;;
64595;SDS011;51003;51.628;6.670;2023-03-24T15:03:43;1.30;;;1.20;;
64595;SDS011;51003;51.628;6.670;2023-03-24T15:06:19;1.20;;;1.10;;
64595;SDS011;51003;51.628;6.670;2023-03-24T15:08:50;4.00;;;1.37;;
64595;SDS011;51003;51.628;6.670;2023-03-24T15:14:45;9.30;;;1.60;;
64595;SDS011;51003;51.628;6.670;2023-03-24T15:17:19;3.53;;;1.40;;
64595;SDS011;51003;51.628;6.670;2023-03-24T15:19:48;2.80;;;1.30;;
64595;SDS011;51003;51.628;6.670;2023-03-24T15:22:15;1.30;;;1.13;;
64595;SDS011;51003;51.628;6.670;2023-03-24T15:24:42;2.13;;;1.60;;
64595;SDS011;51003;51.628;6.670;2023-03-24T15:27:24;2.30;;;1.30;;
64595;SDS011;51003;51.628;6.670;2023-03-24T15:29:58;2.17;;;1.43;;
64595;SDS011;51003;51.628;6.670;2023-03-24T15:35:55;4.60;;;1.30;;
64595;SDS011;51003;51.628;6.670;2023-03-24T15:41:44;1.50;;;1.30;;
64595;SDS011;51003;51.628;6.670;2023-03-24T15:44:15;1.17;;;1.07;;
64595;SDS011;51003;51.628;6.670;2023-03-24T15:46:43;1.27;;;1.17;;
64595;SDS011;51003;51.628;6.670;2023-03-24T15:49:15;2.40;;;1.20;;
64595;SDS011;51003;51.628;6.670;2023-03-24T15:51:48;3.33;;;1.20;;
64595;SDS011;51003;51.628;6.670;2023-03-24T15:54:40;4.00;;;1.40;;
64595;SDS011;51003;51.628;6.670;2023-03-24T15:59:46;3.50;;;1.40;;
64595;SDS011;51003;51.628;6.670;2023-03-24T16:02:38;2.40;;;1.20;;
64595;SDS011;51003;51.628;6.670;2023-03-24T16:05:14;1.63;;;1.20;;
64595;SDS011;51003;51.628;6.670;2023-03-24T16:12:57;1.87;;;1.57;;
64595;SDS011;51003;51.628;6.670;2023-03-24T16:15:26;8.50;;;2.83;;
64595;SDS011;51003;51.628;6.670;2023-03-24T16:17:52;2.70;;;1.60;;
64595;SDS011;51003;51.628;6.670;2023-03-24T16:20:18;4.00;;;1.97;;
64595;SDS011;51003;51.628;6.670;2023-03-24T16:22:45;2.83;;;1.50;;
64595;SDS011;51003;51.628;6.670;2023-03-24T16:25:12;5.93;;;1.70;;
64595;SDS011;51003;51.628;6.670;2023-03-24T16:27:38;4.03;;;1.80;;
64595;SDS011;51003;51.628;6.670;2023-03-24T16:30:16;2.40;;;1.20;;
64595;SDS011;51003;51.628;6.670;2023-03-24T16:32:46;6.27;;;2.07;;
64595;SDS011;51003;51.628;6.670;2023-03-24T16:35:11;4.27;;;2.10;;
64595;SDS011;51003;51.628;6.670;2023-03-24T16:37:36;4.83;;;2.10;;
64595;SDS011;51003;51.628;6.670;2023-03-24T16:40:11;5.53;;;2.00;;
64595;SDS011;51003;51.628;6.670;2023-03-24T16:42:44;4.60;;;2.27;;
64595;SDS011;51003;51.628;6.670;2023-03-24T16:45:10;2.60;;;2.30;;
64595;SDS011;51003;51.628;6.670;2023-03-24T16:47:35;3.50;;;1.87;;
64595;SDS011;51003;51.628;6.670;2023-03-24T16:50:01;7.07;;;3.10;;
64595;SDS011;51003;51.628;6.670;2023-03-24T16:52:26;4.43;;;1.53;;
64595;SDS011;51003;51.628;6.670;2023-03-24T16:54:52;4.97;;;1.70;;
64595;SDS011;51003;51.628;6.670;2023-03-24T16:57:18;5.10;;;1.77;;
64595;SDS011;51003;51.628;6.670;2023-03-24T16:59:43;4.47;;;1.77;;
64595;SDS011;51003;51.628;6.670;2023-03-24T17:02:09;1.30;;;1.20;;
64595;SDS011;51003;51.628;6.670;2023-03-24T17:04:35;3.03;;;1.40;;
64595;SDS011;51003;51.628;6.670;2023-03-24T17:07:01;3.93;;;1.37;;
64595;SDS011;51003;51.628;6.670;2023-03-24T17:09:26;1.40;;;1.30;;
64595;SDS011;51003;51.628;6.670;2023-03-24T17:11:56;1.60;;;1.40;;
64595;SDS011;51003;51.628;6.670;2023-03-24T17:14:22;2.40;;;1.10;;
64595;SDS011;51003;51.628;6.670;2023-03-24T17:16:48;6.00;;;1.20;;
64595;SDS011;51003;51.628;6.670;2023-03-24T17:19:17;1.80;;;1.20;;
64595;SDS011;51003;51.628;6.670;2023-03-24T17:24:22;10.83;;;3.50;;
64595;SDS011;51003;51.628;6.670;2023-03-24T17:26:48;8.73;;;4.90;;
64595;SDS011;51003;51.628;6.670;2023-03-24T17:32:36;7.80;;;5.10;;
64595;SDS011;51003;51.628;6.670;2023-03-24T17:38:32;3.93;;;2.07;;
64595;SDS011;51003;51.628;6.670;2023-03-24T17:44:20;6.40;;;2.30;;
64595;SDS011;51003;51.628;6.670;2023-03-24T17:50:16;2.83;;;1.83;;
